Mc Cabe, Montana
Current Conditions -  °F | °C
As of 6:53 PM on Friday 24 Oct 2014 (Local Time) from KOLF Reporting Station
Clear Clear  
Wind Chill: 52°   Ceiling: Unl
Heat Index: 52°   Visibility: 10mi
Dew Point: 29°   Wind: 12mph
Humidity: 41%   Direction: 280°W
Pressure: 30.03"   Gusts: NA
Location:  48.2801°N, 104.9441°W
Report Text: KOLF 250053Z AUTO 28010KT 10SM CLR 11/M02 A3003 RMK AO2 SLP178 T01111017
Loading
Personal Weather Stations






























Interactive Weather Map
Tropical Storm Tracking
New forecast layout! Learn more

10-Day Weather Forecast

Advertisements
Track Severe Weather on mobile